sensor_id;sensor_type;location;lat;lon;timestamp;temperature;humidity
43338;DHT22;28933;52.492;13.434;2022-09-17T00:00:59;14.40;99.60
43338;DHT22;28933;52.492;13.434;2022-09-17T00:03:26;14.40;99.60
43338;DHT22;28933;52.492;13.434;2022-09-17T00:06:05;14.40;99.70
43338;DHT22;28933;52.492;13.434;2022-09-17T00:08:32;14.40;99.80
43338;DHT22;28933;52.492;13.434;2022-09-17T00:11:08;14.40;99.70
43338;DHT22;28933;52.492;13.434;2022-09-17T00:13:35;14.40;99.80
43338;DHT22;28933;52.492;13.434;2022-09-17T00:16:01;14.40;99.70
43338;DHT22;28933;52.492;13.434;2022-09-17T00:18:26;14.40;99.70
43338;DHT22;28933;52.492;13.434;2022-09-17T00:20:52;14.50;99.80
43338;DHT22;28933;52.492;13.434;2022-09-17T00:23:17;14.50;99.80
43338;DHT22;28933;52.492;13.434;2022-09-17T00:25:44;14.50;99.90
43338;DHT22;28933;52.492;13.434;2022-09-17T00:28:12;14.50;99.90
43338;DHT22;28933;52.492;13.434;2022-09-17T00:30:39;14.50;99.90
43338;DHT22;28933;52.492;13.434;2022-09-17T00:33:05;14.50;99.90
43338;DHT22;28933;52.492;13.434;2022-09-17T00:35:31;14.50;99.90
43338;DHT22;28933;52.492;13.434;2022-09-17T00:37:56;14.50;99.90
43338;DHT22;28933;52.492;13.434;2022-09-17T00:40:22;14.50;99.90
43338;DHT22;28933;52.492;13.434;2022-09-17T00:42:48;14.50;99.90
43338;DHT22;28933;52.492;13.434;2022-09-17T00:45:14;14.50;99.90
43338;DHT22;28933;52.492;13.434;2022-09-17T00:47:46;14.60;99.90
43338;DHT22;28933;52.492;13.434;2022-09-17T00:50:17;14.60;99.90
43338;DHT22;28933;52.492;13.434;2022-09-17T00:52:53;14.60;99.90
43338;DHT22;28933;52.492;13.434;2022-09-17T00:55:37;14.60;99.90
43338;DHT22;28933;52.492;13.434;2022-09-17T00:58:06;14.60;99.90
43338;DHT22;28933;52.492;13.434;2022-09-17T01:00:32;14.60;99.90
43338;DHT22;28933;52.492;13.434;2022-09-17T01:02:58;14.60;99.90
43338;DHT22;28933;52.492;13.434;2022-09-17T01:11:14;14.60;99.90
43338;DHT22;28933;52.492;13.434;2022-09-17T01:16:58;14.60;99.90
43338;DHT22;28933;52.492;13.434;2022-09-17T01:19:49;14.60;99.90
43338;DHT22;28933;52.492;13.434;2022-09-17T01:22:40;14.60;99.90
43338;DHT22;28933;52.492;13.434;2022-09-17T01:25:21;14.50;99.90
43338;DHT22;28933;52.492;13.434;2022-09-17T01:33:47;14.50;99.90
43338;DHT22;28933;52.492;13.434;2022-09-17T01:45:00;14.60;99.90
43338;DHT22;28933;52.492;13.434;2022-09-17T01:47:36;14.60;99.90
43338;DHT22;28933;52.492;13.434;2022-09-17T01:50:08;14.60;99.90
43338;DHT22;28933;52.492;13.434;2022-09-17T01:52:38;14.60;99.90
43338;DHT22;28933;52.492;13.434;2022-09-17T01:55:08;14.60;99.90
43338;DHT22;28933;52.492;13.434;2022-09-17T02:00:10;14.60;99.90
43338;DHT22;28933;52.492;13.434;2022-09-17T02:02:59;14.60;99.90
43338;DHT22;28933;52.492;13.434;2022-09-17T02:05:34;14.60;99.90
43338;DHT22;28933;52.492;13.434;2022-09-17T02:08:07;14.70;99.90
43338;DHT22;28933;52.492;13.434;2022-09-17T02:10:40;14.70;99.90
43338;DHT22;28933;52.492;13.434;2022-09-17T02:13:10;14.70;99.90
43338;DHT22;28933;52.492;13.434;2022-09-17T02:15:41;14.70;99.90
43338;DHT22;28933;52.492;13.434;2022-09-17T02:18:33;14.60;99.90
43338;DHT22;28933;52.492;13.434;2022-09-17T02:23:44;14.70;99.90
43338;DHT22;28933;52.492;13.434;2022-09-17T02:26:15;14.70;99.90
43338;DHT22;28933;52.492;13.434;2022-09-17T02:28:52;14.70;99.90
43338;DHT22;28933;52.492;13.434;2022-09-17T02:31:19;14.70;99.90
43338;DHT22;28933;52.492;13.434;2022-09-17T02:33:51;14.70;99.90
43338;DHT22;28933;52.492;13.434;2022-09-17T02:36:18;14.80;99.90
43338;DHT22;28933;52.492;13.434;2022-09-17T02:38:45;14.80;99.90
43338;DHT22;28933;52.492;13.434;2022-09-17T02:41:20;14.80;99.90
43338;DHT22;28933;52.492;13.434;2022-09-17T02:44:09;14.80;99.90
43338;DHT22;28933;52.492;13.434;2022-09-17T02:46:46;14.90;99.90
43338;DHT22;28933;52.492;13.434;2022-09-17T02:52:16;14.90;99.90
43338;DHT22;28933;52.492;13.434;2022-09-17T02:54:59;14.90;99.90
43338;DHT22;28933;52.492;13.434;2022-09-17T02:57:49;14.90;99.90
43338;DHT22;28933;52.492;13.434;2022-09-17T03:00:20;14.90;99.90
43338;DHT22;28933;52.492;13.434;2022-09-17T03:02:57;14.90;99.90
43338;DHT22;28933;52.492;13.434;2022-09-17T03:05:24;14.90;99.90
43338;DHT22;28933;52.492;13.434;2022-09-17T03:07:51;14.90;99.90
43338;DHT22;28933;52.492;13.434;2022-09-17T03:10:19;14.90;99.90
43338;DHT22;28933;52.492;13.434;2022-09-17T03:12:44;14.90;99.90
43338;DHT22;28933;52.492;13.434;2022-09-17T03:15:10;15.00;99.90
43338;DHT22;28933;52.492;13.434;2022-09-17T03:17:36;15.00;99.90
43338;DHT22;28933;52.492;13.434;2022-09-17T03:20:02;15.00;99.90
43338;DHT22;28933;52.492;13.434;2022-09-17T03:22:28;15.00;99.90
43338;DHT22;28933;52.492;13.434;2022-09-17T03:24:53;15.00;99.90
43338;DHT22;28933;52.492;13.434;2022-09-17T03:27:19;15.00;99.90
43338;DHT22;28933;52.492;13.434;2022-09-17T03:29:44;15.10;99.90
43338;DHT22;28933;52.492;13.434;2022-09-17T03:32:10;15.00;99.90
43338;DHT22;28933;52.492;13.434;2022-09-17T03:34:36;15.00;99.90
43338;DHT22;28933;52.492;13.434;2022-09-17T03:37:01;15.10;99.90
43338;DHT22;28933;52.492;13.434;2022-09-17T03:39:28;15.10;99.90
43338;DHT22;28933;52.492;13.434;2022-09-17T03:41:53;15.10;99.90
43338;DHT22;28933;52.492;13.434;2022-09-17T03:44:19;15.10;99.90
43338;DHT22;28933;52.492;13.434;2022-09-17T03:46:45;15.10;99.90
43338;DHT22;28933;52.492;13.434;2022-09-17T03:49:11;15.10;99.90
43338;DHT22;28933;52.492;13.434;2022-09-17T03:51:36;15.10;99.90
43338;DHT22;28933;52.492;13.434;2022-09-17T03:54:02;15.10;99.90
43338;DHT22;28933;52.492;13.434;2022-09-17T03:56:27;15.10;99.90
43338;DHT22;28933;52.492;13.434;2022-09-17T03:59:00;15.10;99.90
43338;DHT22;28933;52.492;13.434;2022-09-17T04:01:26;15.10;99.90
43338;DHT22;28933;52.492;13.434;2022-09-17T04:03:52;15.00;99.90
43338;DHT22;28933;52.492;13.434;2022-09-17T04:06:18;15.00;99.90
43338;DHT22;28933;52.492;13.434;2022-09-17T04:08:45;15.00;99.90
43338;DHT22;28933;52.492;13.434;2022-09-17T04:11:11;15.00;99.90
43338;DHT22;28933;52.492;13.434;2022-09-17T04:13:37;15.00;99.90
43338;DHT22;28933;52.492;13.434;2022-09-17T04:16:03;15.00;99.90
43338;DHT22;28933;52.492;13.434;2022-09-17T04:18:29;15.00;99.90
43338;DHT22;28933;52.492;13.434;2022-09-17T04:20:55;15.00;99.90
43338;DHT22;28933;52.492;13.434;2022-09-17T04:23:21;15.00;99.90
43338;DHT22;28933;52.492;13.434;2022-09-17T04:25:46;15.10;99.90
43338;DHT22;28933;52.492;13.434;2022-09-17T04:28:12;15.10;99.90
43338;DHT22;28933;52.492;13.434;2022-09-17T04:30:38;15.10;99.90
43338;DHT22;28933;52.492;13.434;2022-09-17T04:33:04;15.00;99.90
43338;DHT22;28933;52.492;13.434;2022-09-17T04:35:29;15.00;99.90
43338;DHT22;28933;52.492;13.434;2022-09-17T04:37:56;15.00;99.90
43338;DHT22;28933;52.492;13.434;2022-09-17T04:40:23;15.00;99.90
43338;DHT22;28933;52.492;13.434;2022-09-17T04:42:53;15.00;99.90
43338;DHT22;28933;52.492;13.434;2022-09-17T04:45:20;15.00;99.90
43338;DHT22;28933;52.492;13.434;2022-09-17T04:47:45;15.00;99.90
43338;DHT22;28933;52.492;13.434;2022-09-17T04:50:11;15.00;99.90
43338;DHT22;28933;52.492;13.434;2022-09-17T04:52:41;15.00;99.90
43338;DHT22;28933;52.492;13.434;2022-09-17T04:55:07;15.00;99.90
43338;DHT22;28933;52.492;13.434;2022-09-17T04:57:33;15.00;99.90
43338;DHT22;28933;52.492;13.434;2022-09-17T04:59:58;15.00;99.90
43338;DHT22;28933;52.492;13.434;2022-09-17T05:02:24;14.90;99.90
43338;DHT22;28933;52.492;13.434;2022-09-17T05:04:50;14.90;99.90
43338;DHT22;28933;52.492;13.434;2022-09-17T05:07:15;15.00;99.90
43338;DHT22;28933;52.492;13.434;2022-09-17T05:09:41;15.00;99.90
43338;DHT22;28933;52.492;13.434;2022-09-17T05:12:07;15.00;99.90
43338;DHT22;28933;52.492;13.434;2022-09-17T05:14:32;15.00;99.90
43338;DHT22;28933;52.492;13.434;2022-09-17T05:16:58;15.00;99.90
43338;DHT22;28933;52.492;13.434;2022-09-17T05:19:23;15.00;99.90
43338;DHT22;28933;52.492;13.434;2022-09-17T05:21:49;15.00;99.90
43338;DHT22;28933;52.492;13.434;2022-09-17T05:24:14;15.00;99.90
43338;DHT22;28933;52.492;13.434;2022-09-17T05:26:40;15.00;99.90
43338;DHT22;28933;52.492;13.434;2022-09-17T05:29:05;15.10;99.90
43338;DHT22;28933;52.492;13.434;2022-09-17T05:31:31;15.10;99.90
43338;DHT22;28933;52.492;13.434;2022-09-17T05:33:58;15.10;99.90
43338;DHT22;28933;52.492;13.434;2022-09-17T05:36:23;15.10;99.90
43338;DHT22;28933;52.492;13.434;2022-09-17T05:38:49;15.10;99.90
43338;DHT22;28933;52.492;13.434;2022-09-17T05:41:15;15.20;99.90
43338;DHT22;28933;52.492;13.434;2022-09-17T05:43:42;15.20;99.90
43338;DHT22;28933;52.492;13.434;2022-09-17T05:46:08;15.20;99.90
43338;DHT22;28933;52.492;13.434;2022-09-17T05:48:34;15.20;99.90
43338;DHT22;28933;52.492;13.434;2022-09-17T05:51:02;15.30;99.90
43338;DHT22;28933;52.492;13.434;2022-09-17T05:53:28;15.40;99.90
43338;DHT22;28933;52.492;13.434;2022-09-17T05:55:57;15.40;99.90
43338;DHT22;28933;52.492;13.434;2022-09-17T05:58:24;15.40;99.90
43338;DHT22;28933;52.492;13.434;2022-09-17T06:00:50;15.40;99.90
43338;DHT22;28933;52.492;13.434;2022-09-17T06:03:18;15.40;99.90
43338;DHT22;28933;52.492;13.434;2022-09-17T06:05:55;15.40;99.90
43338;DHT22;28933;52.492;13.434;2022-09-17T06:08:23;15.50;99.90
43338;DHT22;28933;52.492;13.434;2022-09-17T06:10:49;15.50;99.90
43338;DHT22;28933;52.492;13.434;2022-09-17T06:13:16;15.50;99.90
43338;DHT22;28933;52.492;13.434;2022-09-17T06:15:42;15.50;99.90
43338;DHT22;28933;52.492;13.434;2022-09-17T06:18:13;15.50;99.90
43338;DHT22;28933;52.492;13.434;2022-09-17T06:20:39;15.40;99.90
43338;DHT22;28933;52.492;13.434;2022-09-17T06:23:05;15.40;99.90
43338;DHT22;28933;52.492;13.434;2022-09-17T06:25:31;15.40;99.90
43338;DHT22;28933;52.492;13.434;2022-09-17T06:27:57;15.40;99.90
43338;DHT22;28933;52.492;13.434;2022-09-17T06:30:22;15.40;99.90
43338;DHT22;28933;52.492;13.434;2022-09-17T06:32:48;15.40;99.90
43338;DHT22;28933;52.492;13.434;2022-09-17T06:35:14;15.50;99.90
43338;DHT22;28933;52.492;13.434;2022-09-17T06:37:39;15.50;99.90
43338;DHT22;28933;52.492;13.434;2022-09-17T06:40:06;15.50;99.90
43338;DHT22;28933;52.492;13.434;2022-09-17T06:42:32;15.50;99.90
43338;DHT22;28933;52.492;13.434;2022-09-17T06:44:58;15.50;99.90
43338;DHT22;28933;52.492;13.434;2022-09-17T06:47:24;15.50;99.90
43338;DHT22;28933;52.492;13.434;2022-09-17T06:49:49;15.50;99.90
43338;DHT22;28933;52.492;13.434;2022-09-17T06:52:18;15.60;99.90
43338;DHT22;28933;52.492;13.434;2022-09-17T06:54:44;15.60;99.90
43338;DHT22;28933;52.492;13.434;2022-09-17T06:57:09;15.60;99.90
43338;DHT22;28933;52.492;13.434;2022-09-17T06:59:35;15.60;99.90
43338;DHT22;28933;52.492;13.434;2022-09-17T07:02:00;15.60;99.90
43338;DHT22;28933;52.492;13.434;2022-09-17T07:04:27;15.60;99.80
43338;DHT22;28933;52.492;13.434;2022-09-17T07:06:53;15.60;99.70
43338;DHT22;28933;52.492;13.434;2022-09-17T07:09:18;15.50;99.60
43338;DHT22;28933;52.492;13.434;2022-09-17T07:11:44;15.50;99.50
43338;DHT22;28933;52.492;13.434;2022-09-17T07:14:09;15.50;99.40
43338;DHT22;28933;52.492;13.434;2022-09-17T07:16:35;15.40;99.40
43338;DHT22;28933;52.492;13.434;2022-09-17T07:19:02;15.50;99.30
43338;DHT22;28933;52.492;13.434;2022-09-17T07:21:28;15.40;99.30
43338;DHT22;28933;52.492;13.434;2022-09-17T07:23:53;15.40;99.40
43338;DHT22;28933;52.492;13.434;2022-09-17T07:26:19;15.40;99.50
43338;DHT22;28933;52.492;13.434;2022-09-17T07:28:44;15.50;99.50
43338;DHT22;28933;52.492;13.434;2022-09-17T07:31:11;15.50;99.30
43338;DHT22;28933;52.492;13.434;2022-09-17T07:33:37;15.60;99.30
43338;DHT22;28933;52.492;13.434;2022-09-17T07:36:05;15.70;99.30
43338;DHT22;28933;52.492;13.434;2022-09-17T07:38:32;15.70;99.20
43338;DHT22;28933;52.492;13.434;2022-09-17T07:41:04;15.70;99.10
43338;DHT22;28933;52.492;13.434;2022-09-17T07:43:31;15.80;99.00
43338;DHT22;28933;52.492;13.434;2022-09-17T07:45:58;15.90;99.00
43338;DHT22;28933;52.492;13.434;2022-09-17T07:48:24;16.00;98.90
43338;DHT22;28933;52.492;13.434;2022-09-17T07:50:50;16.00;98.80
43338;DHT22;28933;52.492;13.434;2022-09-17T07:53:15;16.10;98.70
43338;DHT22;28933;52.492;13.434;2022-09-17T07:55:41;16.10;98.60
43338;DHT22;28933;52.492;13.434;2022-09-17T07:58:08;16.20;98.60
43338;DHT22;28933;52.492;13.434;2022-09-17T08:00:33;16.20;98.30
43338;DHT22;28933;52.492;13.434;2022-09-17T08:02:59;16.10;98.10
43338;DHT22;28933;52.492;13.434;2022-09-17T08:05:25;16.20;98.10
43338;DHT22;28933;52.492;13.434;2022-09-17T08:07:52;16.20;98.20
43338;DHT22;28933;52.492;13.434;2022-09-17T08:10:19;16.30;98.10
43338;DHT22;28933;52.492;13.434;2022-09-17T08:12:55;16.40;98.00
43338;DHT22;28933;52.492;13.434;2022-09-17T08:15:21;16.40;97.70
43338;DHT22;28933;52.492;13.434;2022-09-17T08:17:49;16.40;97.60
43338;DHT22;28933;52.492;13.434;2022-09-17T08:20:15;16.40;97.30
43338;DHT22;28933;52.492;13.434;2022-09-17T08:22:41;16.40;97.50
43338;DHT22;28933;52.492;13.434;2022-09-17T08:25:08;16.40;97.30
43338;DHT22;28933;52.492;13.434;2022-09-17T08:27:34;16.40;97.30
43338;DHT22;28933;52.492;13.434;2022-09-17T08:30:00;16.40;97.30
43338;DHT22;28933;52.492;13.434;2022-09-17T08:32:28;16.40;97.40
43338;DHT22;28933;52.492;13.434;2022-09-17T08:34:55;16.50;97.10
43338;DHT22;28933;52.492;13.434;2022-09-17T08:37:20;16.50;96.80
43338;DHT22;28933;52.492;13.434;2022-09-17T08:39:46;16.50;96.80
43338;DHT22;28933;52.492;13.434;2022-09-17T08:42:15;16.50;96.80
43338;DHT22;28933;52.492;13.434;2022-09-17T08:44:43;16.50;96.60
43338;DHT22;28933;52.492;13.434;2022-09-17T08:47:32;16.50;96.40
43338;DHT22;28933;52.492;13.434;2022-09-17T08:50:02;16.60;96.10
43338;DHT22;28933;52.492;13.434;2022-09-17T08:55:59;16.60;95.60
43338;DHT22;28933;52.492;13.434;2022-09-17T09:02:06;16.50;95.60
43338;DHT22;28933;52.492;13.434;2022-09-17T09:07:09;16.40;95.40
43338;DHT22;28933;52.492;13.434;2022-09-17T09:09:42;16.30;95.50
43338;DHT22;28933;52.492;13.434;2022-09-17T09:12:36;16.40;95.70
43338;DHT22;28933;52.492;13.434;2022-09-17T09:15:05;16.20;95.20
43338;DHT22;28933;52.492;13.434;2022-09-17T09:17:37;16.30;95.40
43338;DHT22;28933;52.492;13.434;2022-09-17T09:20:17;16.20;95.30
43338;DHT22;28933;52.492;13.434;2022-09-17T09:22:51;16.20;95.20
43338;DHT22;28933;52.492;13.434;2022-09-17T09:25:25;16.30;95.00
43338;DHT22;28933;52.492;13.434;2022-09-17T09:33:40;16.50;95.00
43338;DHT22;28933;52.492;13.434;2022-09-17T09:36:11;16.60;95.00
43338;DHT22;28933;52.492;13.434;2022-09-17T09:39:04;16.80;94.60
43338;DHT22;28933;52.492;13.434;2022-09-17T09:41:39;16.80;94.60
43338;DHT22;28933;52.492;13.434;2022-09-17T09:44:12;17.00;94.50
43338;DHT22;28933;52.492;13.434;2022-09-17T09:46:49;17.10;94.40
43338;DHT22;28933;52.492;13.434;2022-09-17T09:52:18;17.20;93.90
43338;DHT22;28933;52.492;13.434;2022-09-17T09:57:47;17.20;94.10
43338;DHT22;28933;52.492;13.434;2022-09-17T10:00:32;17.10;94.20
43338;DHT22;28933;52.492;13.434;2022-09-17T10:03:28;17.10;94.60
43338;DHT22;28933;52.492;13.434;2022-09-17T10:06:08;17.00;94.70
43338;DHT22;28933;52.492;13.434;2022-09-17T10:08:40;17.00;95.10
43338;DHT22;28933;52.492;13.434;2022-09-17T10:13:39;17.00;95.20
43338;DHT22;28933;52.492;13.434;2022-09-17T10:16:25;17.10;95.20
43338;DHT22;28933;52.492;13.434;2022-09-17T10:19:15;17.20;95.20
43338;DHT22;28933;52.492;13.434;2022-09-17T10:21:43;17.30;95.10
43338;DHT22;28933;52.492;13.434;2022-09-17T10:26:48;17.40;94.50
43338;DHT22;28933;52.492;13.434;2022-09-17T10:29:17;17.60;94.40
43338;DHT22;28933;52.492;13.434;2022-09-17T10:31:51;17.60;93.90
43338;DHT22;28933;52.492;13.434;2022-09-17T10:34:26;17.70;93.60
43338;DHT22;28933;52.492;13.434;2022-09-17T10:36:52;17.70;93.10
43338;DHT22;28933;52.492;13.434;2022-09-17T10:39:35;17.80;93.20
43338;DHT22;28933;52.492;13.434;2022-09-17T10:42:15;17.70;92.70
43338;DHT22;28933;52.492;13.434;2022-09-17T10:44:51;17.60;92.60
43338;DHT22;28933;52.492;13.434;2022-09-17T10:47:29;17.40;93.20
43338;DHT22;28933;52.492;13.434;2022-09-17T10:50:01;17.30;93.70
43338;DHT22;28933;52.492;13.434;2022-09-17T10:52:33;17.20;94.20
43338;DHT22;28933;52.492;13.434;2022-09-17T10:55:31;17.20;94.40
43338;DHT22;28933;52.492;13.434;2022-09-17T11:09:04;17.50;94.70
43338;DHT22;28933;52.492;13.434;2022-09-17T11:11:48;17.60;94.40
43338;DHT22;28933;52.492;13.434;2022-09-17T11:16:54;17.60;94.20
43338;DHT22;28933;52.492;13.434;2022-09-17T11:22:15;17.70;94.10
43338;DHT22;28933;52.492;13.434;2022-09-17T11:24:59;17.70;93.80
43338;DHT22;28933;52.492;13.434;2022-09-17T11:27:34;17.80;93.60
43338;DHT22;28933;52.492;13.434;2022-09-17T11:30:13;17.80;93.60
43338;DHT22;28933;52.492;13.434;2022-09-17T11:35:35;17.80;92.90
43338;DHT22;28933;52.492;13.434;2022-09-17T11:40:33;17.90;92.50
43338;DHT22;28933;52.492;13.434;2022-09-17T11:43:07;17.90;92.40
43338;DHT22;28933;52.492;13.434;2022-09-17T11:45:40;18.00;92.10
43338;DHT22;28933;52.492;13.434;2022-09-17T11:48:12;18.00;92.20
43338;DHT22;28933;52.492;13.434;2022-09-17T11:50:45;18.20;92.20
43338;DHT22;28933;52.492;13.434;2022-09-17T11:58:33;18.40;91.00
43338;DHT22;28933;52.492;13.434;2022-09-17T12:01:04;18.40;91.00
43338;DHT22;28933;52.492;13.434;2022-09-17T12:03:39;18.30;90.50
43338;DHT22;28933;52.492;13.434;2022-09-17T12:06:15;18.40;90.30
43338;DHT22;28933;52.492;13.434;2022-09-17T12:11:21;18.40;90.10
43338;DHT22;28933;52.492;13.434;2022-09-17T12:13:56;18.40;90.30
43338;DHT22;28933;52.492;13.434;2022-09-17T12:16:38;18.40;89.80
43338;DHT22;28933;52.492;13.434;2022-09-17T12:19:11;18.40;89.60
43338;DHT22;28933;52.492;13.434;2022-09-17T12:21:45;18.40;88.70
43338;DHT22;28933;52.492;13.434;2022-09-17T12:24:21;18.40;88.50
43338;DHT22;28933;52.492;13.434;2022-09-17T12:27:14;18.30;88.70
43338;DHT22;28933;52.492;13.434;2022-09-17T12:38:23;18.10;89.90
43338;DHT22;28933;52.492;13.434;2022-09-17T12:41:20;18.00;89.60
43338;DHT22;28933;52.492;13.434;2022-09-17T12:44:24;18.00;89.30
43338;DHT22;28933;52.492;13.434;2022-09-17T12:57:58;18.10;88.90
43338;DHT22;28933;52.492;13.434;2022-09-17T13:00:09;18.20;89.20
43338;DHT22;28933;52.492;13.434;2022-09-17T13:14:14;18.30;86.40
43338;DHT22;28933;52.492;13.434;2022-09-17T13:19:52;18.20;85.10
43338;DHT22;28933;52.492;13.434;2022-09-17T13:22:23;18.30;84.30
43338;DHT22;28933;52.492;13.434;2022-09-17T13:27:28;18.30;82.00
43338;DHT22;28933;52.492;13.434;2022-09-17T13:37:54;18.40;81.90
43338;DHT22;28933;52.492;13.434;2022-09-17T13:43:17;18.50;81.30
43338;DHT22;28933;52.492;13.434;2022-09-17T13:48:28;18.50;81.70
43338;DHT22;28933;52.492;13.434;2022-09-17T13:50:54;18.60;81.10
43338;DHT22;28933;52.492;13.434;2022-09-17T13:53:22;18.60;80.40
43338;DHT22;28933;52.492;13.434;2022-09-17T13:55:58;18.60;78.60
43338;DHT22;28933;52.492;13.434;2022-09-17T13:58:28;18.60;78.50
43338;DHT22;28933;52.492;13.434;2022-09-17T14:13:54;18.80;78.70
43338;DHT22;28933;52.492;13.434;2022-09-17T14:19:43;18.80;79.10
43338;DHT22;28933;52.492;13.434;2022-09-17T14:22:21;18.80;78.60
43338;DHT22;28933;52.492;13.434;2022-09-17T14:24:51;18.80;78.30
43338;DHT22;28933;52.492;13.434;2022-09-17T14:30:05;18.80;76.80
43338;DHT22;28933;52.492;13.434;2022-09-17T14:32:52;18.70;76.90
43338;DHT22;28933;52.492;13.434;2022-09-17T14:38:12;18.50;77.10
43338;DHT22;28933;52.492;13.434;2022-09-17T14:40:44;18.40;77.00
43338;DHT22;28933;52.492;13.434;2022-09-17T14:43:30;18.20;77.50
43338;DHT22;28933;52.492;13.434;2022-09-17T14:46:02;18.00;78.00
43338;DHT22;28933;52.492;13.434;2022-09-17T14:48:34;18.00;79.10
43338;DHT22;28933;52.492;13.434;2022-09-17T14:53:45;17.80;81.00
43338;DHT22;28933;52.492;13.434;2022-09-17T14:56:30;17.70;81.50
43338;DHT22;28933;52.492;13.434;2022-09-17T14:58:57;17.70;81.00
43338;DHT22;28933;52.492;13.434;2022-09-17T15:01:25;17.60;81.10
43338;DHT22;28933;52.492;13.434;2022-09-17T15:06:42;17.60;81.00
43338;DHT22;28933;52.492;13.434;2022-09-17T15:09:15;17.60;80.80
43338;DHT22;28933;52.492;13.434;2022-09-17T15:11:42;17.70;79.60
43338;DHT22;28933;52.492;13.434;2022-09-17T15:14:20;17.70;79.10
43338;DHT22;28933;52.492;13.434;2022-09-17T15:16:52;17.70;78.80
43338;DHT22;28933;52.492;13.434;2022-09-17T15:19:26;17.80;78.90
43338;DHT22;28933;52.492;13.434;2022-09-17T15:21:59;17.80;78.90
43338;DHT22;28933;52.492;13.434;2022-09-17T15:24:58;17.80;78.80
43338;DHT22;28933;52.492;13.434;2022-09-17T15:30:18;17.80;79.00
43338;DHT22;28933;52.492;13.434;2022-09-17T15:32:55;17.90;79.60
43338;DHT22;28933;52.492;13.434;2022-09-17T15:35:29;17.90;78.90
43338;DHT22;28933;52.492;13.434;2022-09-17T15:38:01;17.90;78.90
43338;DHT22;28933;52.492;13.434;2022-09-17T15:40:33;17.90;78.70
43338;DHT22;28933;52.492;13.434;2022-09-17T15:43:17;17.90;78.40
43338;DHT22;28933;52.492;13.434;2022-09-17T15:45:45;17.90;78.70
43338;DHT22;28933;52.492;13.434;2022-09-17T15:48:34;18.00;78.80
43338;DHT22;28933;52.492;13.434;2022-09-17T15:51:03;18.00;79.10
43338;DHT22;28933;52.492;13.434;2022-09-17T15:53:33;17.90;78.30
43338;DHT22;28933;52.492;13.434;2022-09-17T16:08:55;17.40;77.70
43338;DHT22;28933;52.492;13.434;2022-09-17T16:11:30;17.30;78.00
43338;DHT22;28933;52.492;13.434;2022-09-17T16:13:58;17.30;77.80
43338;DHT22;28933;52.492;13.434;2022-09-17T16:16:35;17.20;78.40
43338;DHT22;28933;52.492;13.434;2022-09-17T16:19:01;17.10;78.90
43338;DHT22;28933;52.492;13.434;2022-09-17T16:21:26;17.10;78.80
43338;DHT22;28933;52.492;13.434;2022-09-17T16:23:53;17.00;79.00
43338;DHT22;28933;52.492;13.434;2022-09-17T16:26:22;16.80;78.80
43338;DHT22;28933;52.492;13.434;2022-09-17T16:28:51;16.70;79.30
43338;DHT22;28933;52.492;13.434;2022-09-17T16:31:18;16.50;79.40
43338;DHT22;28933;52.492;13.434;2022-09-17T16:33:44;16.40;79.70
43338;DHT22;28933;52.492;13.434;2022-09-17T16:36:10;16.30;79.80
43338;DHT22;28933;52.492;13.434;2022-09-17T16:38:36;16.30;80.00
43338;DHT22;28933;52.492;13.434;2022-09-17T16:41:06;16.20;80.20
43338;DHT22;28933;52.492;13.434;2022-09-17T16:43:32;16.10;80.80
43338;DHT22;28933;52.492;13.434;2022-09-17T16:46:04;16.00;80.80
43338;DHT22;28933;52.492;13.434;2022-09-17T16:48:31;15.90;81.10
43338;DHT22;28933;52.492;13.434;2022-09-17T16:50:56;15.80;82.20
43338;DHT22;28933;52.492;13.434;2022-09-17T16:53:22;15.70;81.80
43338;DHT22;28933;52.492;13.434;2022-09-17T16:55:47;15.60;82.30
43338;DHT22;28933;52.492;13.434;2022-09-17T16:58:13;15.60;82.60
43338;DHT22;28933;52.492;13.434;2022-09-17T17:00:41;15.60;82.70
43338;DHT22;28933;52.492;13.434;2022-09-17T17:03:10;15.60;83.20
43338;DHT22;28933;52.492;13.434;2022-09-17T17:05:36;15.60;83.60
43338;DHT22;28933;52.492;13.434;2022-09-17T17:08:02;15.50;83.40
43338;DHT22;28933;52.492;13.434;2022-09-17T17:10:28;15.50;83.50
43338;DHT22;28933;52.492;13.434;2022-09-17T17:12:53;15.50;83.50
43338;DHT22;28933;52.492;13.434;2022-09-17T17:15:19;15.50;83.50
43338;DHT22;28933;52.492;13.434;2022-09-17T17:17:46;15.50;83.60
43338;DHT22;28933;52.492;13.434;2022-09-17T17:20:11;15.50;83.60
43338;DHT22;28933;52.492;13.434;2022-09-17T17:22:39;15.50;83.60
43338;DHT22;28933;52.492;13.434;2022-09-17T17:25:06;15.50;83.90
43338;DHT22;28933;52.492;13.434;2022-09-17T17:27:32;15.50;83.80
43338;DHT22;28933;52.492;13.434;2022-09-17T17:29:58;15.50;83.90
43338;DHT22;28933;52.492;13.434;2022-09-17T17:32:26;15.50;84.10
43338;DHT22;28933;52.492;13.434;2022-09-17T17:34:52;15.40;84.10
43338;DHT22;28933;52.492;13.434;2022-09-17T17:37:19;15.40;84.50
43338;DHT22;28933;52.492;13.434;2022-09-17T17:39:47;15.40;84.40
43338;DHT22;28933;52.492;13.434;2022-09-17T17:42:13;15.40;84.30
43338;DHT22;28933;52.492;13.434;2022-09-17T17:44:38;15.30;84.70
43338;DHT22;28933;52.492;13.434;2022-09-17T17:47:04;15.30;84.90
43338;DHT22;28933;52.492;13.434;2022-09-17T17:49:31;15.30;85.00
43338;DHT22;28933;52.492;13.434;2022-09-17T17:51:57;15.20;85.20
43338;DHT22;28933;52.492;13.434;2022-09-17T17:54:23;15.20;85.30
43338;DHT22;28933;52.492;13.434;2022-09-17T17:56:49;15.20;85.50
43338;DHT22;28933;52.492;13.434;2022-09-17T17:59:14;15.20;85.60
43338;DHT22;28933;52.492;13.434;2022-09-17T18:01:40;15.20;86.00
43338;DHT22;28933;52.492;13.434;2022-09-17T18:04:06;15.20;86.30
43338;DHT22;28933;52.492;13.434;2022-09-17T18:06:33;15.20;86.80
43338;DHT22;28933;52.492;13.434;2022-09-17T18:08:59;15.20;86.90
43338;DHT22;28933;52.492;13.434;2022-09-17T18:11:25;15.10;87.40
43338;DHT22;28933;52.492;13.434;2022-09-17T18:13:52;15.10;87.70
43338;DHT22;28933;52.492;13.434;2022-09-17T18:16:18;15.10;88.20
43338;DHT22;28933;52.492;13.434;2022-09-17T18:18:45;15.10;88.40
43338;DHT22;28933;52.492;13.434;2022-09-17T18:21:16;15.00;88.70
43338;DHT22;28933;52.492;13.434;2022-09-17T18:23:42;15.00;89.00
43338;DHT22;28933;52.492;13.434;2022-09-17T18:26:13;15.00;89.00
43338;DHT22;28933;52.492;13.434;2022-09-17T18:28:39;15.00;89.30
43338;DHT22;28933;52.492;13.434;2022-09-17T18:31:07;15.00;89.30
43338;DHT22;28933;52.492;13.434;2022-09-17T18:33:33;15.00;89.50